sensor_id;sensor_type;location;lat;lon;timestamp;P1;durP1;ratioP1;P2;durP2;ratioP2
9958;SDS011;5019;48.012;7.812;2022-09-12T00:01:40;4.20;;;2.30;;
9958;SDS011;5019;48.012;7.812;2022-09-12T00:04:06;2.33;;;1.73;;
9958;SDS011;5019;48.012;7.812;2022-09-12T00:06:33;3.60;;;1.93;;
9958;SDS011;5019;48.012;7.812;2022-09-12T00:09:02;4.60;;;2.40;;
9958;SDS011;5019;48.012;7.812;2022-09-12T00:11:29;2.67;;;2.10;;
9958;SDS011;5019;48.012;7.812;2022-09-12T00:13:56;2.03;;;1.83;;
9958;SDS011;5019;48.012;7.812;2022-09-12T00:16:23;2.80;;;1.80;;
9958;SDS011;5019;48.012;7.812;2022-09-12T00:18:50;2.50;;;1.87;;
9958;SDS011;5019;48.012;7.812;2022-09-12T00:21:16;3.60;;;1.73;;
9958;SDS011;5019;48.012;7.812;2022-09-12T00:23:43;1.93;;;1.73;;
9958;SDS011;5019;48.012;7.812;2022-09-12T00:26:10;1.67;;;1.57;;
9958;SDS011;5019;48.012;7.812;2022-09-12T00:28:37;2.30;;;1.47;;
9958;SDS011;5019;48.012;7.812;2022-09-12T00:31:04;1.60;;;1.50;;
9958;SDS011;5019;48.012;7.812;2022-09-12T00:33:31;4.50;;;1.90;;
9958;SDS011;5019;48.012;7.812;2022-09-12T00:35:57;2.40;;;1.57;;
9958;SDS011;5019;48.012;7.812;2022-09-12T00:38:23;4.03;;;3.00;;
9958;SDS011;5019;48.012;7.812;2022-09-12T00:40:49;2.30;;;2.10;;
9958;SDS011;5019;48.012;7.812;2022-09-12T00:43:35;3.03;;;2.30;;
9958;SDS011;5019;48.012;7.812;2022-09-12T00:46:02;3.23;;;2.70;;
9958;SDS011;5019;48.012;7.812;2022-09-12T00:48:34;3.03;;;2.50;;
9958;SDS011;5019;48.012;7.812;2022-09-12T00:51:02;2.77;;;2.40;;
9958;SDS011;5019;48.012;7.812;2022-09-12T00:53:28;2.83;;;2.07;;
9958;SDS011;5019;48.012;7.812;2022-09-12T00:55:54;2.97;;;2.77;;
9958;SDS011;5019;48.012;7.812;2022-09-12T00:58:22;3.03;;;2.40;;
9958;SDS011;5019;48.012;7.812;2022-09-12T01:00:49;2.23;;;2.03;;
9958;SDS011;5019;48.012;7.812;2022-09-12T01:03:16;3.00;;;1.57;;
9958;SDS011;5019;48.012;7.812;2022-09-12T01:05:51;1.80;;;1.70;;
9958;SDS011;5019;48.012;7.812;2022-09-12T01:08:18;3.13;;;2.23;;
9958;SDS011;5019;48.012;7.812;2022-09-12T01:10:45;2.93;;;1.70;;
9958;SDS011;5019;48.012;7.812;2022-09-12T01:13:11;2.80;;;2.00;;
9958;SDS011;5019;48.012;7.812;2022-09-12T01:15:38;1.83;;;1.73;;
9958;SDS011;5019;48.012;7.812;2022-09-12T01:23:25;2.80;;;2.10;;
9958;SDS011;5019;48.012;7.812;2022-09-12T01:28:47;2.37;;;2.17;;
9958;SDS011;5019;48.012;7.812;2022-09-12T01:34:27;4.37;;;1.87;;
9958;SDS011;5019;48.012;7.812;2022-09-12T01:46:28;2.77;;;1.90;;
9958;SDS011;5019;48.012;7.812;2022-09-12T01:49:06;2.20;;;2.10;;
9958;SDS011;5019;48.012;7.812;2022-09-12T01:54:14;2.27;;;2.00;;
9958;SDS011;5019;48.012;7.812;2022-09-12T01:56:42;2.23;;;2.13;;
9958;SDS011;5019;48.012;7.812;2022-09-12T01:59:22;2.40;;;1.90;;
9958;SDS011;5019;48.012;7.812;2022-09-12T02:01:56;2.70;;;2.50;;
9958;SDS011;5019;48.012;7.812;2022-09-12T02:04:24;2.37;;;2.17;;
9958;SDS011;5019;48.012;7.812;2022-09-12T02:06:53;7.23;;;2.57;;
9958;SDS011;5019;48.012;7.812;2022-09-12T02:09:22;2.67;;;2.07;;
9958;SDS011;5019;48.012;7.812;2022-09-12T02:11:49;4.20;;;2.50;;
9958;SDS011;5019;48.012;7.812;2022-09-12T02:14:35;2.80;;;2.60;;
9958;SDS011;5019;48.012;7.812;2022-09-12T02:17:05;3.00;;;2.60;;
9958;SDS011;5019;48.012;7.812;2022-09-12T02:19:36;3.10;;;2.90;;
9958;SDS011;5019;48.012;7.812;2022-09-12T02:22:04;3.07;;;2.77;;
9958;SDS011;5019;48.012;7.812;2022-09-12T02:24:32;2.67;;;2.47;;
9958;SDS011;5019;48.012;7.812;2022-09-12T02:27:05;2.97;;;2.70;;
9958;SDS011;5019;48.012;7.812;2022-09-12T02:29:32;3.40;;;3.10;;
9958;SDS011;5019;48.012;7.812;2022-09-12T02:31:59;4.30;;;2.87;;
9958;SDS011;5019;48.012;7.812;2022-09-12T02:37:24;3.17;;;2.93;;
9958;SDS011;5019;48.012;7.812;2022-09-12T02:39:54;3.50;;;2.70;;
9958;SDS011;5019;48.012;7.812;2022-09-12T02:42:21;7.20;;;2.90;;
9958;SDS011;5019;48.012;7.812;2022-09-12T02:44:48;3.57;;;3.13;;
9958;SDS011;5019;48.012;7.812;2022-09-12T02:47:19;3.60;;;2.90;;
9958;SDS011;5019;48.012;7.812;2022-09-12T02:49:47;6.03;;;3.10;;
9958;SDS011;5019;48.012;7.812;2022-09-12T02:52:14;3.77;;;2.63;;
9958;SDS011;5019;48.012;7.812;2022-09-12T02:54:40;2.53;;;2.33;;
9958;SDS011;5019;48.012;7.812;2022-09-12T02:57:16;3.40;;;2.30;;
9958;SDS011;5019;48.012;7.812;2022-09-12T02:59:43;5.37;;;2.87;;
9958;SDS011;5019;48.012;7.812;2022-09-12T03:16:03;3.10;;;2.67;;
9958;SDS011;5019;48.012;7.812;2022-09-12T03:20:52;3.10;;;2.80;;
9958;SDS011;5019;48.012;7.812;2022-09-12T03:23:24;35.60;;;3.30;;
9958;SDS011;5019;48.012;7.812;2022-09-12T03:26:29;2.77;;;2.53;;
9958;SDS011;5019;48.012;7.812;2022-09-12T03:28:46;2.90;;;2.70;;
9958;SDS011;5019;48.012;7.812;2022-09-12T03:31:14;3.23;;;2.83;;
9958;SDS011;5019;48.012;7.812;2022-09-12T03:33:41;2.93;;;2.20;;
9958;SDS011;5019;48.012;7.812;2022-09-12T03:36:23;2.10;;;2.00;;
9958;SDS011;5019;48.012;7.812;2022-09-12T03:38:49;2.47;;;2.27;;
9958;SDS011;5019;48.012;7.812;2022-09-12T03:41:15;2.47;;;2.20;;
9958;SDS011;5019;48.012;7.812;2022-09-12T03:43:42;3.13;;;2.50;;
9958;SDS011;5019;48.012;7.812;2022-09-12T03:46:08;3.03;;;2.73;;
9958;SDS011;5019;48.012;7.812;2022-09-12T03:48:34;2.63;;;2.43;;
9958;SDS011;5019;48.012;7.812;2022-09-12T03:51:00;2.93;;;2.73;;
9958;SDS011;5019;48.012;7.812;2022-09-12T03:53:27;3.80;;;2.10;;
9958;SDS011;5019;48.012;7.812;2022-09-12T03:55:53;2.07;;;1.97;;
9958;SDS011;5019;48.012;7.812;2022-09-12T03:58:19;5.23;;;2.13;;
9958;SDS011;5019;48.012;7.812;2022-09-12T04:00:45;2.03;;;1.83;;
9958;SDS011;5019;48.012;7.812;2022-09-12T04:03:11;2.97;;;2.63;;
9958;SDS011;5019;48.012;7.812;2022-09-12T04:05:37;2.40;;;2.07;;
9958;SDS011;5019;48.012;7.812;2022-09-12T04:08:03;3.33;;;2.30;;
9958;SDS011;5019;48.012;7.812;2022-09-12T04:10:30;2.50;;;2.00;;
9958;SDS011;5019;48.012;7.812;2022-09-12T04:12:56;2.70;;;2.50;;
9958;SDS011;5019;48.012;7.812;2022-09-12T04:15:22;1.97;;;1.87;;
9958;SDS011;5019;48.012;7.812;2022-09-12T04:17:48;3.57;;;2.23;;
9958;SDS011;5019;48.012;7.812;2022-09-12T04:20:14;2.07;;;1.90;;
9958;SDS011;5019;48.012;7.812;2022-09-12T04:22:40;4.43;;;2.23;;
9958;SDS011;5019;48.012;7.812;2022-09-12T04:25:06;2.30;;;2.20;;
9958;SDS011;5019;48.012;7.812;2022-09-12T04:27:33;2.87;;;2.63;;
9958;SDS011;5019;48.012;7.812;2022-09-12T04:29:59;2.90;;;2.60;;
9958;SDS011;5019;48.012;7.812;2022-09-12T04:32:28;3.37;;;2.50;;
9958;SDS011;5019;48.012;7.812;2022-09-12T04:34:54;4.17;;;2.50;;
9958;SDS011;5019;48.012;7.812;2022-09-12T04:37:20;3.27;;;2.97;;
9958;SDS011;5019;48.012;7.812;2022-09-12T04:39:47;2.97;;;2.73;;
9958;SDS011;5019;48.012;7.812;2022-09-12T04:42:14;3.43;;;2.67;;
9958;SDS011;5019;48.012;7.812;2022-09-12T04:44:40;3.27;;;2.13;;
9958;SDS011;5019;48.012;7.812;2022-09-12T04:47:06;4.60;;;2.80;;
9958;SDS011;5019;48.012;7.812;2022-09-12T04:49:32;4.63;;;3.43;;
9958;SDS011;5019;48.012;7.812;2022-09-12T04:51:58;4.83;;;2.77;;
9958;SDS011;5019;48.012;7.812;2022-09-12T04:54:24;3.03;;;2.50;;
9958;SDS011;5019;48.012;7.812;2022-09-12T04:56:51;3.27;;;2.70;;
9958;SDS011;5019;48.012;7.812;2022-09-12T04:59:19;3.50;;;3.20;;
9958;SDS011;5019;48.012;7.812;2022-09-12T05:01:45;3.60;;;2.90;;
9958;SDS011;5019;48.012;7.812;2022-09-12T05:04:11;3.43;;;2.70;;
9958;SDS011;5019;48.012;7.812;2022-09-12T05:06:37;4.23;;;2.80;;
9958;SDS011;5019;48.012;7.812;2022-09-12T05:09:05;3.27;;;2.80;;
9958;SDS011;5019;48.012;7.812;2022-09-12T05:11:33;3.10;;;2.80;;
9958;SDS011;5019;48.012;7.812;2022-09-12T05:14:00;5.40;;;3.80;;
9958;SDS011;5019;48.012;7.812;2022-09-12T05:16:28;5.97;;;3.50;;
9958;SDS011;5019;48.012;7.812;2022-09-12T05:18:55;5.37;;;2.90;;
9958;SDS011;5019;48.012;7.812;2022-09-12T05:21:22;3.90;;;2.80;;
9958;SDS011;5019;48.012;7.812;2022-09-12T05:23:51;3.07;;;2.77;;
9958;SDS011;5019;48.012;7.812;2022-09-12T05:26:18;5.87;;;3.23;;
9958;SDS011;5019;48.012;7.812;2022-09-12T05:28:45;4.43;;;4.03;;
9958;SDS011;5019;48.012;7.812;2022-09-12T05:33:37;4.53;;;3.27;;
9958;SDS011;5019;48.012;7.812;2022-09-12T05:36:04;6.13;;;3.80;;
9958;SDS011;5019;48.012;7.812;2022-09-12T05:38:31;5.50;;;3.53;;
9958;SDS011;5019;48.012;7.812;2022-09-12T05:41:03;7.40;;;4.30;;
9958;SDS011;5019;48.012;7.812;2022-09-12T05:43:30;3.70;;;3.27;;
9958;SDS011;5019;48.012;7.812;2022-09-12T05:46:31;5.10;;;3.17;;
9958;SDS011;5019;48.012;7.812;2022-09-12T05:48:49;4.93;;;3.97;;
9958;SDS011;5019;48.012;7.812;2022-09-12T05:51:20;5.97;;;4.60;;
9958;SDS011;5019;48.012;7.812;2022-09-12T05:53:47;5.23;;;3.20;;
9958;SDS011;5019;48.012;7.812;2022-09-12T05:56:15;4.93;;;3.90;;
9958;SDS011;5019;48.012;7.812;2022-09-12T05:58:42;5.20;;;4.20;;
9958;SDS011;5019;48.012;7.812;2022-09-12T06:01:09;4.67;;;4.07;;
9958;SDS011;5019;48.012;7.812;2022-09-12T06:03:40;4.03;;;3.33;;
9958;SDS011;5019;48.012;7.812;2022-09-12T06:06:06;6.10;;;3.70;;
9958;SDS011;5019;48.012;7.812;2022-09-12T06:08:33;5.40;;;4.03;;
9958;SDS011;5019;48.012;7.812;2022-09-12T06:11:01;5.17;;;3.10;;
9958;SDS011;5019;48.012;7.812;2022-09-12T06:13:27;3.40;;;3.10;;
9958;SDS011;5019;48.012;7.812;2022-09-12T06:15:55;3.50;;;3.20;;
9958;SDS011;5019;48.012;7.812;2022-09-12T06:18:26;6.30;;;3.97;;
9958;SDS011;5019;48.012;7.812;2022-09-12T06:20:52;3.93;;;3.43;;
9958;SDS011;5019;48.012;7.812;2022-09-12T06:23:18;4.07;;;3.67;;
9958;SDS011;5019;48.012;7.812;2022-09-12T06:25:45;4.20;;;2.80;;
9958;SDS011;5019;48.012;7.812;2022-09-12T06:28:12;6.27;;;3.20;;
9958;SDS011;5019;48.012;7.812;2022-09-12T06:30:38;3.20;;;2.90;;
9958;SDS011;5019;48.012;7.812;2022-09-12T06:33:04;3.23;;;2.93;;
9958;SDS011;5019;48.012;7.812;2022-09-12T06:35:30;4.13;;;3.63;;
9958;SDS011;5019;48.012;7.812;2022-09-12T06:38:00;3.20;;;2.93;;
9958;SDS011;5019;48.012;7.812;2022-09-12T06:40:26;4.00;;;3.60;;
9958;SDS011;5019;48.012;7.812;2022-09-12T06:42:53;5.23;;;3.77;;
9958;SDS011;5019;48.012;7.812;2022-09-12T06:45:19;3.97;;;3.67;;
9958;SDS011;5019;48.012;7.812;2022-09-12T06:47:46;3.53;;;2.83;;
9958;SDS011;5019;48.012;7.812;2022-09-12T06:50:12;6.43;;;3.30;;
9958;SDS011;5019;48.012;7.812;2022-09-12T06:52:38;2.43;;;2.23;;
9958;SDS011;5019;48.012;7.812;2022-09-12T06:55:05;4.10;;;3.43;;
9958;SDS011;5019;48.012;7.812;2022-09-12T06:57:31;2.80;;;2.60;;
9958;SDS011;5019;48.012;7.812;2022-09-12T07:00:01;4.37;;;3.10;;
9958;SDS011;5019;48.012;7.812;2022-09-12T07:02:28;5.03;;;3.70;;
9958;SDS011;5019;48.012;7.812;2022-09-12T07:04:54;6.07;;;3.90;;
9958;SDS011;5019;48.012;7.812;2022-09-12T07:07:21;5.30;;;4.03;;
9958;SDS011;5019;48.012;7.812;2022-09-12T07:09:47;5.07;;;4.30;;
9958;SDS011;5019;48.012;7.812;2022-09-12T07:12:13;7.37;;;4.90;;
9958;SDS011;5019;48.012;7.812;2022-09-12T07:14:39;8.20;;;4.60;;
9958;SDS011;5019;48.012;7.812;2022-09-12T07:17:06;5.40;;;4.70;;
9958;SDS011;5019;48.012;7.812;2022-09-12T07:19:32;8.77;;;6.00;;
9958;SDS011;5019;48.012;7.812;2022-09-12T07:21:59;7.50;;;6.13;;
9958;SDS011;5019;48.012;7.812;2022-09-12T07:24:25;8.13;;;6.23;;
9958;SDS011;5019;48.012;7.812;2022-09-12T07:26:51;7.40;;;6.67;;
9958;SDS011;5019;48.012;7.812;2022-09-12T07:29:17;11.17;;;6.80;;
9958;SDS011;5019;48.012;7.812;2022-09-12T07:31:43;8.23;;;6.40;;
9958;SDS011;5019;48.012;7.812;2022-09-12T07:34:09;7.70;;;4.70;;
9958;SDS011;5019;48.012;7.812;2022-09-12T07:36:35;11.60;;;5.27;;
9958;SDS011;5019;48.012;7.812;2022-09-12T07:39:02;5.23;;;4.60;;
9958;SDS011;5019;48.012;7.812;2022-09-12T07:41:29;7.07;;;5.17;;
9958;SDS011;5019;48.012;7.812;2022-09-12T07:43:56;11.40;;;5.77;;
9958;SDS011;5019;48.012;7.812;2022-09-12T07:46:23;6.17;;;4.87;;
9958;SDS011;5019;48.012;7.812;2022-09-12T07:48:53;5.57;;;4.93;;
9958;SDS011;5019;48.012;7.812;2022-09-12T07:51:19;5.73;;;4.73;;
9958;SDS011;5019;48.012;7.812;2022-09-12T07:53:46;6.27;;;4.70;;
9958;SDS011;5019;48.012;7.812;2022-09-12T07:56:13;7.37;;;5.10;;
9958;SDS011;5019;48.012;7.812;2022-09-12T07:58:39;5.13;;;4.17;;
9958;SDS011;5019;48.012;7.812;2022-09-12T08:01:10;9.10;;;5.00;;
9958;SDS011;5019;48.012;7.812;2022-09-12T08:03:39;8.17;;;4.93;;
9958;SDS011;5019;48.012;7.812;2022-09-12T08:06:13;7.47;;;4.30;;
9958;SDS011;5019;48.012;7.812;2022-09-12T08:08:39;10.60;;;4.93;;
9958;SDS011;5019;48.012;7.812;2022-09-12T08:11:07;5.77;;;3.97;;
9958;SDS011;5019;48.012;7.812;2022-09-12T08:13:33;4.63;;;4.13;;
9958;SDS011;5019;48.012;7.812;2022-09-12T08:16:04;6.47;;;4.27;;
9958;SDS011;5019;48.012;7.812;2022-09-12T08:18:31;5.00;;;4.10;;
9958;SDS011;5019;48.012;7.812;2022-09-12T08:21:04;4.10;;;3.43;;
9958;SDS011;5019;48.012;7.812;2022-09-12T08:23:30;4.90;;;4.03;;
9958;SDS011;5019;48.012;7.812;2022-09-12T08:26:02;5.20;;;4.40;;
9958;SDS011;5019;48.012;7.812;2022-09-12T08:28:29;4.60;;;4.20;;
9958;SDS011;5019;48.012;7.812;2022-09-12T08:31:09;5.07;;;4.33;;
9958;SDS011;5019;48.012;7.812;2022-09-12T08:33:35;7.60;;;4.20;;
9958;SDS011;5019;48.012;7.812;2022-09-12T08:36:02;5.17;;;4.20;;
9958;SDS011;5019;48.012;7.812;2022-09-12T08:38:29;4.00;;;3.60;;
9958;SDS011;5019;48.012;7.812;2022-09-12T08:45:58;5.20;;;3.40;;
9958;SDS011;5019;48.012;7.812;2022-09-12T08:48:26;5.93;;;4.33;;
9958;SDS011;5019;48.012;7.812;2022-09-12T08:50:52;6.83;;;3.60;;
9958;SDS011;5019;48.012;7.812;2022-09-12T08:53:20;5.63;;;4.13;;
9958;SDS011;5019;48.012;7.812;2022-09-12T08:55:52;3.93;;;3.37;;
9958;SDS011;5019;48.012;7.812;2022-09-12T08:58:21;6.90;;;2.97;;
9958;SDS011;5019;48.012;7.812;2022-09-12T09:14:30;3.30;;;3.00;;
9958;SDS011;5019;48.012;7.812;2022-09-12T09:17:18;3.93;;;2.73;;
9958;SDS011;5019;48.012;7.812;2022-09-12T09:19:48;2.80;;;2.60;;
9958;SDS011;5019;48.012;7.812;2022-09-12T09:22:17;3.80;;;3.10;;
9958;SDS011;5019;48.012;7.812;2022-09-12T09:24:48;4.00;;;2.33;;
9958;SDS011;5019;48.012;7.812;2022-09-12T09:27:35;2.93;;;2.73;;
9958;SDS011;5019;48.012;7.812;2022-09-12T09:30:03;3.27;;;2.97;;
9958;SDS011;5019;48.012;7.812;2022-09-12T09:32:35;3.23;;;2.90;;
9958;SDS011;5019;48.012;7.812;2022-09-12T09:37:41;2.73;;;2.53;;
9958;SDS011;5019;48.012;7.812;2022-09-12T09:42:44;2.70;;;2.50;;
9958;SDS011;5019;48.012;7.812;2022-09-12T09:45:19;2.30;;;2.20;;
9958;SDS011;5019;48.012;7.812;2022-09-12T09:50:26;3.13;;;2.07;;
9958;SDS011;5019;48.012;7.812;2022-09-12T09:52:53;2.80;;;2.60;;
9958;SDS011;5019;48.012;7.812;2022-09-12T09:55:22;3.70;;;2.53;;
9958;SDS011;5019;48.012;7.812;2022-09-12T09:57:49;3.93;;;3.10;;
9958;SDS011;5019;48.012;7.812;2022-09-12T10:00:24;3.50;;;2.70;;
9958;SDS011;5019;48.012;7.812;2022-09-12T10:03:05;3.40;;;2.50;;
9958;SDS011;5019;48.012;7.812;2022-09-12T10:05:45;6.63;;;3.30;;
9958;SDS011;5019;48.012;7.812;2022-09-12T10:08:18;8.70;;;4.10;;
9958;SDS011;5019;48.012;7.812;2022-09-12T10:10:52;3.87;;;3.37;;
9958;SDS011;5019;48.012;7.812;2022-09-12T10:13:23;3.17;;;2.97;;
9958;SDS011;5019;48.012;7.812;2022-09-12T10:15:59;6.30;;;2.53;;
9958;SDS011;5019;48.012;7.812;2022-09-12T10:18:36;5.53;;;4.33;;
9958;SDS011;5019;48.012;7.812;2022-09-12T10:21:16;3.70;;;3.40;;
9958;SDS011;5019;48.012;7.812;2022-09-12T10:23:44;6.87;;;3.73;;
9958;SDS011;5019;48.012;7.812;2022-09-12T10:26:11;3.53;;;3.23;;
9958;SDS011;5019;48.012;7.812;2022-09-12T10:28:42;3.90;;;2.93;;
9958;SDS011;5019;48.012;7.812;2022-09-12T10:31:10;6.07;;;3.70;;
9958;SDS011;5019;48.012;7.812;2022-09-12T10:33:47;3.17;;;2.73;;
9958;SDS011;5019;48.012;7.812;2022-09-12T10:36:18;3.67;;;2.70;;
9958;SDS011;5019;48.012;7.812;2022-09-12T10:39:02;4.47;;;2.70;;
9958;SDS011;5019;48.012;7.812;2022-09-12T10:41:38;5.70;;;4.00;;
9958;SDS011;5019;48.012;7.812;2022-09-12T10:44:06;4.23;;;2.90;;
9958;SDS011;5019;48.012;7.812;2022-09-12T10:46:33;3.07;;;2.70;;
9958;SDS011;5019;48.012;7.812;2022-09-12T10:51:48;4.50;;;3.20;;
9958;SDS011;5019;48.012;7.812;2022-09-12T10:54:15;2.77;;;2.57;;
9958;SDS011;5019;48.012;7.812;2022-09-12T11:17:21;2.00;;;1.90;;
9958;SDS011;5019;48.012;7.812;2022-09-12T11:29:53;2.50;;;2.30;;
9958;SDS011;5019;48.012;7.812;2022-09-12T11:42:46;3.40;;;2.60;;
9958;SDS011;5019;48.012;7.812;2022-09-12T11:47:40;1.70;;;1.60;;
9958;SDS011;5019;48.012;7.812;2022-09-12T11:50:23;2.60;;;2.40;;
9958;SDS011;5019;48.012;7.812;2022-09-12T11:52:52;2.53;;;2.10;;
9958;SDS011;5019;48.012;7.812;2022-09-12T12:01:28;1.93;;;1.60;;
9958;SDS011;5019;48.012;7.812;2022-09-12T12:03:57;3.63;;;1.80;;
9958;SDS011;5019;48.012;7.812;2022-09-12T12:06:39;3.27;;;2.17;;
9958;SDS011;5019;48.012;7.812;2022-09-12T12:09:10;1.70;;;1.60;;
9958;SDS011;5019;48.012;7.812;2022-09-12T12:11:39;3.27;;;2.20;;
9958;SDS011;5019;48.012;7.812;2022-09-12T12:14:11;4.43;;;1.83;;
9958;SDS011;5019;48.012;7.812;2022-09-12T12:16:39;2.07;;;1.97;;
9958;SDS011;5019;48.012;7.812;2022-09-12T12:19:28;5.43;;;4.67;;
9958;SDS011;5019;48.012;7.812;2022-09-12T12:21:51;3.50;;;1.70;;
9958;SDS011;5019;48.012;7.812;2022-09-12T12:24:24;1.80;;;1.70;;
9958;SDS011;5019;48.012;7.812;2022-09-12T12:27:00;1.97;;;1.83;;
9958;SDS011;5019;48.012;7.812;2022-09-12T12:34:29;2.30;;;2.10;;
9958;SDS011;5019;48.012;7.812;2022-09-12T12:36:56;2.00;;;1.80;;
9958;SDS011;5019;48.012;7.812;2022-09-12T12:42:01;1.60;;;1.50;;
9958;SDS011;5019;48.012;7.812;2022-09-12T12:49:41;1.97;;;1.60;;
9958;SDS011;5019;48.012;7.812;2022-09-12T12:52:14;6.30;;;1.53;;
9958;SDS011;5019;48.012;7.812;2022-09-12T13:00:03;2.70;;;1.30;;
9958;SDS011;5019;48.012;7.812;2022-09-12T13:02:34;1.80;;;1.67;;
9958;SDS011;5019;48.012;7.812;2022-09-12T13:05:03;1.60;;;1.30;;
9958;SDS011;5019;48.012;7.812;2022-09-12T13:07:31;1.30;;;1.20;;
9958;SDS011;5019;48.012;7.812;2022-09-12T13:09:58;1.67;;;1.37;;
9958;SDS011;5019;48.012;7.812;2022-09-12T13:12:29;1.87;;;1.77;;
9958;SDS011;5019;48.012;7.812;2022-09-12T13:14:59;1.50;;;1.27;;
9958;SDS011;5019;48.012;7.812;2022-09-12T13:20:43;1.27;;;1.17;;
9958;SDS011;5019;48.012;7.812;2022-09-12T13:22:45;3.03;;;2.10;;
9958;SDS011;5019;48.012;7.812;2022-09-12T13:25:22;1.50;;;1.40;;
9958;SDS011;5019;48.012;7.812;2022-09-12T13:30:24;1.57;;;1.47;;
9958;SDS011;5019;48.012;7.812;2022-09-12T13:32:51;1.50;;;1.33;;
9958;SDS011;5019;48.012;7.812;2022-09-12T13:38:19;1.80;;;1.70;;
9958;SDS011;5019;48.012;7.812;2022-09-12T13:41:01;2.83;;;2.63;;
9958;SDS011;5019;48.012;7.812;2022-09-12T13:43:39;2.00;;;1.90;;
9958;SDS011;5019;48.012;7.812;2022-09-12T13:46:06;2.27;;;1.53;;
9958;SDS011;5019;48.012;7.812;2022-09-12T13:48:33;6.00;;;1.83;;
9958;SDS011;5019;48.012;7.812;2022-09-12T13:51:00;2.10;;;1.90;;
9958;SDS011;5019;48.012;7.812;2022-09-12T13:53:31;1.33;;;1.23;;
9958;SDS011;5019;48.012;7.812;2022-09-12T13:56:00;2.50;;;1.60;;
9958;SDS011;5019;48.012;7.812;2022-09-12T14:03:40;4.00;;;1.80;;
9958;SDS011;5019;48.012;7.812;2022-09-12T14:06:25;1.47;;;1.37;;
9958;SDS011;5019;48.012;7.812;2022-09-12T14:08:53;1.53;;;1.43;;
9958;SDS011;5019;48.012;7.812;2022-09-12T14:11:26;1.83;;;1.50;;
9958;SDS011;5019;48.012;7.812;2022-09-12T14:13:52;1.63;;;1.53;;
9958;SDS011;5019;48.012;7.812;2022-09-12T14:16:19;2.50;;;2.30;;
9958;SDS011;5019;48.012;7.812;2022-09-12T14:18:47;3.20;;;1.80;;
9958;SDS011;5019;48.012;7.812;2022-09-12T14:21:35;3.43;;;1.90;;
9958;SDS011;5019;48.012;7.812;2022-09-12T14:24:00;2.80;;;1.70;;
9958;SDS011;5019;48.012;7.812;2022-09-12T14:26:28;1.30;;;1.20;;
9958;SDS011;5019;48.012;7.812;2022-09-12T14:28:58;2.60;;;1.40;;
9958;SDS011;5019;48.012;7.812;2022-09-12T14:31:29;2.17;;;1.13;;
9958;SDS011;5019;48.012;7.812;2022-09-12T14:34:07;1.40;;;1.30;;
9958;SDS011;5019;48.012;7.812;2022-09-12T14:41:40;1.40;;;1.30;;
9958;SDS011;5019;48.012;7.812;2022-09-12T14:44:08;1.50;;;1.40;;
9958;SDS011;5019;48.012;7.812;2022-09-12T14:46:36;3.07;;;1.93;;
9958;SDS011;5019;48.012;7.812;2022-09-12T14:59:28;2.00;;;1.73;;
9958;SDS011;5019;48.012;7.812;2022-09-12T15:04:42;1.30;;;1.20;;
9958;SDS011;5019;48.012;7.812;2022-09-12T15:07:30;5.70;;;1.70;;
9958;SDS011;5019;48.012;7.812;2022-09-12T15:09:57;2.90;;;1.50;;
9958;SDS011;5019;48.012;7.812;2022-09-12T15:12:24;3.23;;;1.60;;
9958;SDS011;5019;48.012;7.812;2022-09-12T15:14:50;2.10;;;2.00;;
9958;SDS011;5019;48.012;7.812;2022-09-12T15:17:16;1.53;;;1.43;;
9958;SDS011;5019;48.012;7.812;2022-09-12T15:19:42;4.70;;;1.70;;
9958;SDS011;5019;48.012;7.812;2022-09-12T15:22:11;1.73;;;1.63;;
9958;SDS011;5019;48.012;7.812;2022-09-12T15:24:38;1.43;;;1.33;;
9958;SDS011;5019;48.012;7.812;2022-09-12T15:27:08;4.30;;;1.50;;
9958;SDS011;5019;48.012;7.812;2022-09-12T15:29:34;1.90;;;1.27;;
9958;SDS011;5019;48.012;7.812;2022-09-12T15:32:00;1.40;;;1.30;;
9958;SDS011;5019;48.012;7.812;2022-09-12T15:34:26;1.30;;;1.20;;
9958;SDS011;5019;48.012;7.812;2022-09-12T15:36:52;2.67;;;1.60;;
9958;SDS011;5019;48.012;7.812;2022-09-12T15:39:18;2.30;;;1.10;;
9958;SDS011;5019;48.012;7.812;2022-09-12T15:41:44;1.53;;;1.43;;
9958;SDS011;5019;48.012;7.812;2022-09-12T15:44:12;2.60;;;2.40;;
9958;SDS011;5019;48.012;7.812;2022-09-12T15:46:38;1.10;;;1.00;;
9958;SDS011;5019;48.012;7.812;2022-09-12T15:49:05;4.43;;;1.57;;
9958;SDS011;5019;48.012;7.812;2022-09-12T15:51:31;1.10;;;1.00;;
9958;SDS011;5019;48.012;7.812;2022-09-12T15:53:58;1.40;;;1.30;;
9958;SDS011;5019;48.012;7.812;2022-09-12T15:56:25;1.50;;;1.40;;
9958;SDS011;5019;48.012;7.812;2022-09-12T15:58:51;1.03;;;0.93;;
9958;SDS011;5019;48.012;7.812;2022-09-12T16:01:17;1.73;;;1.30;;
9958;SDS011;5019;48.012;7.812;2022-09-12T16:03:46;0.97;;;0.93;;
9958;SDS011;5019;48.012;7.812;2022-09-12T16:06:12;1.10;;;1.10;;
9958;SDS011;5019;48.012;7.812;2022-09-12T16:08:39;1.00;;;1.00;;
9958;SDS011;5019;48.012;7.812;2022-09-12T16:11:21;1.03;;;1.03;;
9958;SDS011;5019;48.012;7.812;2022-09-12T16:13:47;1.00;;;1.00;;
9958;SDS011;5019;48.012;7.812;2022-09-12T16:16:13;1.73;;;1.10;;
9958;SDS011;5019;48.012;7.812;2022-09-12T16:18:40;1.63;;;0.90;;
9958;SDS011;5019;48.012;7.812;2022-09-12T16:21:06;4.37;;;1.90;;
9958;SDS011;5019;48.012;7.812;2022-09-12T16:23:32;1.47;;;1.00;;
9958;SDS011;5019;48.012;7.812;2022-09-12T16:26:02;1.50;;;1.30;;
9958;SDS011;5019;48.012;7.812;2022-09-12T16:28:28;4.37;;;1.10;;
9958;SDS011;5019;48.012;7.812;2022-09-12T16:31:01;1.00;;;1.00;;
9958;SDS011;5019;48.012;7.812;2022-09-12T16:33:28;1.23;;;1.13;;
9958;SDS011;5019;48.012;7.812;2022-09-12T16:36:08;3.43;;;1.33;;
9958;SDS011;5019;48.012;7.812;2022-09-12T16:38:39;1.10;;;1.00;;
9958;SDS011;5019;48.012;7.812;2022-09-12T16:41:05;1.17;;;1.07;;
9958;SDS011;5019;48.012;7.812;2022-09-12T16:43:32;0.90;;;0.90;;
9958;SDS011;5019;48.012;7.812;2022-09-12T16:48:27;1.20;;;1.10;;
9958;SDS011;5019;48.012;7.812;2022-09-12T16:50:57;1.93;;;1.30;;
9958;SDS011;5019;48.012;7.812;2022-09-12T16:53:28;2.23;;;1.40;;
9958;SDS011;5019;48.012;7.812;2022-09-12T16:55:55;8.83;;;1.20;;
9958;SDS011;5019;48.012;7.812;2022-09-12T16:58:21;1.30;;;0.87;;
9958;SDS011;5019;48.012;7.812;2022-09-12T17:00:47;6.10;;;0.90;;
9958;SDS011;5019;48.012;7.812;2022-09-12T17:03:13;1.10;;;1.00;;
9958;SDS011;5019;48.012;7.812;2022-09-12T17:05:41;0.83;;;0.83;;
9958;SDS011;5019;48.012;7.812;2022-09-12T17:08:07;1.00;;;0.90;;
9958;SDS011;5019;48.012;7.812;2022-09-12T17:10:33;1.13;;;1.03;;
9958;SDS011;5019;48.012;7.812;2022-09-12T17:13:00;1.30;;;1.20;;
9958;SDS011;5019;48.012;7.812;2022-09-12T17:15:26;1.20;;;1.10;;
9958;SDS011;5019;48.012;7.812;2022-09-12T17:17:52;1.33;;;1.23;;
9958;SDS011;5019;48.012;7.812;2022-09-12T17:20:18;2.20;;;1.20;;
9958;SDS011;5019;48.012;7.812;2022-09-12T17:22:44;1.40;;;1.30;;
9958;SDS011;5019;48.012;7.812;2022-09-12T17:25:10;2.30;;;1.10;;
9958;SDS011;5019;48.012;7.812;2022-09-12T17:27:37;3.70;;;1.03;;
9958;SDS011;5019;48.012;7.812;2022-09-12T17:30:03;1.70;;;0.90;;
9958;SDS011;5019;48.012;7.812;2022-09-12T17:32:29;2.40;;;2.20;;
9958;SDS011;5019;48.012;7.812;2022-09-12T17:34:55;1.40;;;1.30;;
9958;SDS011;5019;48.012;7.812;2022-09-12T17:37:21;8.73;;;1.70;;
9958;SDS011;5019;48.012;7.812;2022-09-12T17:39:48;1.70;;;1.60;;
9958;SDS011;5019;48.012;7.812;2022-09-12T17:42:14;3.50;;;1.40;;
9958;SDS011;5019;48.012;7.812;2022-09-12T17:44:40;1.00;;;1.00;;
9958;SDS011;5019;48.012;7.812;2022-09-12T17:47:06;1.40;;;1.30;;
9958;SDS011;5019;48.012;7.812;2022-09-12T17:49:32;2.17;;;1.50;;
9958;SDS011;5019;48.012;7.812;2022-09-12T17:51:59;2.50;;;1.37;;
9958;SDS011;5019;48.012;7.812;2022-09-12T17:54:26;3.83;;;1.63;;
9958;SDS011;5019;48.012;7.812;2022-09-12T17:56:52;1.57;;;1.40;;
9958;SDS011;5019;48.012;7.812;2022-09-12T17:59:20;2.60;;;1.80;;
9958;SDS011;5019;48.012;7.812;2022-09-12T18:01:48;3.83;;;1.97;;
9958;SDS011;5019;48.012;7.812;2022-09-12T18:04:33;1.53;;;1.40;;
9958;SDS011;5019;48.012;7.812;2022-09-12T18:06:59;3.83;;;2.00;;
9958;SDS011;5019;48.012;7.812;2022-09-12T18:09:26;3.30;;;2.70;;
9958;SDS011;5019;48.012;7.812;2022-09-12T18:11:52;4.60;;;2.07;;
9958;SDS011;5019;48.012;7.812;2022-09-12T18:14:19;3.00;;;1.90;;
9958;SDS011;5019;48.012;7.812;2022-09-12T18:16:46;2.80;;;1.90;;
9958;SDS011;5019;48.012;7.812;2022-09-12T18:19:12;2.93;;;1.73;;
9958;SDS011;5019;48.012;7.812;2022-09-12T18:21:38;3.20;;;1.60;;